sensor_id;sensor_type;location;lat;lon;timestamp;pressure;altitude;pressure_sealevel;temperature;humidity
52719;BME280;38616;42.140;24.760;2024-01-30T00:01:38;101808.22;;;4.37;44.60
52719;BME280;38616;42.140;24.760;2024-01-30T00:04:03;101798.56;;;4.27;44.66
52719;BME280;38616;42.140;24.760;2024-01-30T00:06:29;101805.50;;;4.22;44.75
52719;BME280;38616;42.140;24.760;2024-01-30T00:08:54;101805.84;;;4.04;44.99
52719;BME280;38616;42.140;24.760;2024-01-30T00:11:20;101811.97;;;4.12;44.84
52719;BME280;38616;42.140;24.760;2024-01-30T00:13:46;101800.41;;;4.27;44.65
52719;BME280;38616;42.140;24.760;2024-01-30T00:16:24;101810.72;;;4.38;44.84
52719;BME280;38616;42.140;24.760;2024-01-30T00:18:53;101808.59;;;4.49;44.30
52719;BME280;38616;42.140;24.760;2024-01-30T00:21:20;101808.69;;;4.40;44.46
52719;BME280;38616;42.140;24.760;2024-01-30T00:23:45;101816.19;;;4.45;44.50
52719;BME280;38616;42.140;24.760;2024-01-30T00:26:11;101811.00;;;4.28;44.58
52719;BME280;38616;42.140;24.760;2024-01-30T00:28:38;101805.03;;;4.48;44.26
52719;BME280;38616;42.140;24.760;2024-01-30T00:31:04;101811.34;;;4.55;43.95
52719;BME280;38616;42.140;24.760;2024-01-30T00:33:29;101809.41;;;4.34;44.24
52719;BME280;38616;42.140;24.760;2024-01-30T00:35:55;101809.13;;;4.44;44.57
52719;BME280;38616;42.140;24.760;2024-01-30T00:38:20;101806.06;;;4.47;44.27
52719;BME280;38616;42.140;24.760;2024-01-30T00:40:46;101810.06;;;4.66;44.21
52719;BME280;38616;42.140;24.760;2024-01-30T00:43:11;101807.38;;;4.36;44.18
52719;BME280;38616;42.140;24.760;2024-01-30T00:45:37;101813.03;;;4.56;43.78
52719;BME280;38616;42.140;24.760;2024-01-30T00:48:03;101811.28;;;4.49;44.29
52719;BME280;38616;42.140;24.760;2024-01-30T00:50:29;101808.00;;;4.53;44.18
52719;BME280;38616;42.140;24.760;2024-01-30T00:52:54;101816.84;;;4.62;43.74
52719;BME280;38616;42.140;24.760;2024-01-30T00:55:20;101812.22;;;4.41;44.24
52719;BME280;38616;42.140;24.760;2024-01-30T00:57:45;101812.22;;;4.41;44.24
52719;BME280;38616;42.140;24.760;2024-01-30T01:00:12;101811.09;;;4.50;44.19
52719;BME280;38616;42.140;24.760;2024-01-30T01:02:40;101809.91;;;4.38;44.40
52719;BME280;38616;42.140;24.760;2024-01-30T01:05:06;101806.06;;;4.32;44.30
52719;BME280;38616;42.140;24.760;2024-01-30T01:07:32;101814.34;;;4.31;44.53
52719;BME280;38616;42.140;24.760;2024-01-30T01:09:57;101813.56;;;4.22;44.71
52719;BME280;38616;42.140;24.760;2024-01-30T01:12:23;101811.44;;;4.32;44.45
52719;BME280;38616;42.140;24.760;2024-01-30T01:14:48;101810.56;;;4.02;45.06
52719;BME280;38616;42.140;24.760;2024-01-30T01:17:13;101803.00;;;4.20;44.91
52719;BME280;38616;42.140;24.760;2024-01-30T01:19:39;101810.50;;;4.25;44.76
52719;BME280;38616;42.140;24.760;2024-01-30T01:22:04;101797.94;;;4.02;45.15
52719;BME280;38616;42.140;24.760;2024-01-30T01:24:33;101795.88;;;4.27;45.40
52719;BME280;38616;42.140;24.760;2024-01-30T01:26:59;101798.50;;;3.97;45.46
52719;BME280;38616;42.140;24.760;2024-01-30T01:29:25;101785.09;;;3.74;46.15
52719;BME280;38616;42.140;24.760;2024-01-30T01:31:58;101778.84;;;3.59;46.52
52719;BME280;38616;42.140;24.760;2024-01-30T01:34:24;101787.91;;;3.58;46.62
52719;BME280;38616;42.140;24.760;2024-01-30T01:36:50;101791.97;;;3.30;46.84
52719;BME280;38616;42.140;24.760;2024-01-30T01:39:16;101792.78;;;3.31;46.94
52719;BME280;38616;42.140;24.760;2024-01-30T01:41:42;101788.75;;;3.35;46.97
52719;BME280;38616;42.140;24.760;2024-01-30T01:44:08;101789.91;;;3.40;47.04
52719;BME280;38616;42.140;24.760;2024-01-30T01:46:34;101785.69;;;3.38;47.16
52719;BME280;38616;42.140;24.760;2024-01-30T01:49:01;101785.38;;;3.56;46.76
52719;BME280;38616;42.140;24.760;2024-01-30T01:51:28;101787.06;;;3.57;47.29
52719;BME280;38616;42.140;24.760;2024-01-30T01:53:55;101777.13;;;3.43;47.43
52719;BME280;38616;42.140;24.760;2024-01-30T01:56:22;101786.28;;;3.72;47.73
52719;BME280;38616;42.140;24.760;2024-01-30T01:58:49;101782.66;;;3.64;47.24
52719;BME280;38616;42.140;24.760;2024-01-30T02:01:18;101790.91;;;3.39;47.95
52719;BME280;38616;42.140;24.760;2024-01-30T02:03:45;101793.41;;;3.41;48.08
52719;BME280;38616;42.140;24.760;2024-01-30T02:06:12;101798.84;;;3.33;47.94
52719;BME280;38616;42.140;24.760;2024-01-30T02:08:38;101790.03;;;3.16;48.75
52719;BME280;38616;42.140;24.760;2024-01-30T02:11:03;101793.28;;;3.34;48.76
52719;BME280;38616;42.140;24.760;2024-01-30T02:13:29;101787.56;;;3.37;48.32
52719;BME280;38616;42.140;24.760;2024-01-30T02:15:55;101798.84;;;3.56;48.29
52719;BME280;38616;42.140;24.760;2024-01-30T02:18:20;101795.94;;;3.43;48.01
52719;BME280;38616;42.140;24.760;2024-01-30T02:20:48;101796.16;;;3.56;47.45
52719;BME280;38616;42.140;24.760;2024-01-30T02:23:15;101797.72;;;3.50;48.03
52719;BME280;38616;42.140;24.760;2024-01-30T02:25:42;101796.16;;;3.33;47.94
52719;BME280;38616;42.140;24.760;2024-01-30T02:28:14;101794.72;;;3.22;48.08
52719;BME280;38616;42.140;24.760;2024-01-30T02:30:40;101800.44;;;3.19;48.53
52719;BME280;38616;42.140;24.760;2024-01-30T02:33:06;101796.44;;;2.83;48.69
52719;BME280;38616;42.140;24.760;2024-01-30T02:35:31;101815.75;;;3.10;49.05
52719;BME280;38616;42.140;24.760;2024-01-30T02:37:58;101817.47;;;3.34;49.16
52719;BME280;38616;42.140;24.760;2024-01-30T02:40:24;101816.56;;;3.19;48.46
52719;BME280;38616;42.140;24.760;2024-01-30T02:42:49;101824.13;;;2.02;51.04
52719;BME280;38616;42.140;24.760;2024-01-30T02:45:15;101828.81;;;1.84;52.30
52719;BME280;38616;42.140;24.760;2024-01-30T02:47:40;101822.94;;;1.55;53.16
52719;BME280;38616;42.140;24.760;2024-01-30T02:50:06;101822.41;;;1.43;53.23
52719;BME280;38616;42.140;24.760;2024-01-30T02:52:32;101824.56;;;1.23;54.40
52719;BME280;38616;42.140;24.760;2024-01-30T02:54:57;101824.97;;;1.53;54.58
52719;BME280;38616;42.140;24.760;2024-01-30T02:57:23;101831.31;;;1.52;54.54
52719;BME280;38616;42.140;24.760;2024-01-30T02:59:48;101830.16;;;1.71;53.84
52719;BME280;38616;42.140;24.760;2024-01-30T03:02:14;101817.75;;;1.54;53.92
52719;BME280;38616;42.140;24.760;2024-01-30T03:04:42;101826.31;;;1.66;53.78
52719;BME280;38616;42.140;24.760;2024-01-30T03:07:08;101833.34;;;1.83;53.32
52719;BME280;38616;42.140;24.760;2024-01-30T03:09:34;101828.81;;;2.17;53.08
52719;BME280;38616;42.140;24.760;2024-01-30T03:11:59;101823.25;;;2.27;52.09
52719;BME280;38616;42.140;24.760;2024-01-30T03:14:26;101824.59;;;2.22;52.06
52719;BME280;38616;42.140;24.760;2024-01-30T03:16:51;101827.28;;;2.31;52.09
52719;BME280;38616;42.140;24.760;2024-01-30T03:19:17;101830.63;;;2.41;52.22
52719;BME280;38616;42.140;24.760;2024-01-30T03:21:42;101830.19;;;2.69;51.23
52719;BME280;38616;42.140;24.760;2024-01-30T03:24:08;101827.56;;;2.61;51.78
52719;BME280;38616;42.140;24.760;2024-01-30T03:26:34;101818.75;;;2.75;51.06
52719;BME280;38616;42.140;24.760;2024-01-30T03:28:59;101812.81;;;2.48;50.62
52719;BME280;38616;42.140;24.760;2024-01-30T03:31:25;101805.81;;;2.39;51.22
52719;BME280;38616;42.140;24.760;2024-01-30T03:33:50;101815.56;;;2.15;51.90
52719;BME280;38616;42.140;24.760;2024-01-30T03:36:16;101812.22;;;2.13;51.56
52719;BME280;38616;42.140;24.760;2024-01-30T03:38:42;101818.94;;;1.92;52.41
52719;BME280;38616;42.140;24.760;2024-01-30T03:41:11;101826.16;;;2.09;51.52
52719;BME280;38616;42.140;24.760;2024-01-30T03:43:37;101817.88;;;2.43;51.14
52719;BME280;38616;42.140;24.760;2024-01-30T03:46:03;101816.41;;;2.72;50.67
52719;BME280;38616;42.140;24.760;2024-01-30T03:48:29;101819.41;;;2.77;51.03
52719;BME280;38616;42.140;24.760;2024-01-30T03:50:54;101818.75;;;2.75;51.04
52719;BME280;38616;42.140;24.760;2024-01-30T03:53:22;101808.78;;;2.61;51.74
52719;BME280;38616;42.140;24.760;2024-01-30T03:55:48;101803.78;;;2.49;51.81
52719;BME280;38616;42.140;24.760;2024-01-30T03:58:13;101802.69;;;2.67;51.12
52719;BME280;38616;42.140;24.760;2024-01-30T04:00:39;101797.03;;;2.62;51.55
52719;BME280;38616;42.140;24.760;2024-01-30T04:03:06;101800.19;;;2.65;51.92
52719;BME280;38616;42.140;24.760;2024-01-30T04:05:31;101810.13;;;2.57;52.19
52719;BME280;38616;42.140;24.760;2024-01-30T04:07:57;101810.56;;;2.69;51.93
52719;BME280;38616;42.140;24.760;2024-01-30T04:10:23;101822.00;;;2.62;52.11
52719;BME280;38616;42.140;24.760;2024-01-30T04:12:50;101818.69;;;2.44;52.28
52719;BME280;38616;42.140;24.760;2024-01-30T04:15:15;101819.56;;;2.28;52.46
52719;BME280;38616;42.140;24.760;2024-01-30T04:17:42;101826.97;;;2.17;52.93
52719;BME280;38616;42.140;24.760;2024-01-30T04:20:07;101821.94;;;2.22;52.95
52719;BME280;38616;42.140;24.760;2024-01-30T04:22:33;101815.69;;;2.39;52.73
52719;BME280;38616;42.140;24.760;2024-01-30T04:24:58;101816.53;;;2.47;51.79
52719;BME280;38616;42.140;24.760;2024-01-30T04:27:24;101814.56;;;2.25;52.39
52719;BME280;38616;42.140;24.760;2024-01-30T04:29:49;101815.25;;;2.02;53.33
52719;BME280;38616;42.140;24.760;2024-01-30T04:32:15;101815.56;;;2.24;52.85
52719;BME280;38616;42.140;24.760;2024-01-30T04:34:40;101827.44;;;2.29;51.91
52719;BME280;38616;42.140;24.760;2024-01-30T04:37:06;101830.50;;;2.10;52.82
52719;BME280;38616;42.140;24.760;2024-01-30T04:39:33;101831.66;;;1.99;53.09
52719;BME280;38616;42.140;24.760;2024-01-30T04:41:58;101835.34;;;1.89;53.65
52719;BME280;38616;42.140;24.760;2024-01-30T04:44:27;101839.84;;;2.22;53.20
52719;BME280;38616;42.140;24.760;2024-01-30T04:46:53;101846.25;;;2.04;53.33
52719;BME280;38616;42.140;24.760;2024-01-30T04:49:19;101858.81;;;1.71;53.57
52719;BME280;38616;42.140;24.760;2024-01-30T04:51:44;101851.44;;;1.65;54.70
52719;BME280;38616;42.140;24.760;2024-01-30T04:54:09;101845.22;;;1.64;54.30
52719;BME280;38616;42.140;24.760;2024-01-30T04:56:35;101852.28;;;1.82;54.67
52719;BME280;38616;42.140;24.760;2024-01-30T04:59:02;101852.97;;;2.09;53.87
52719;BME280;38616;42.140;24.760;2024-01-30T05:01:28;101850.44;;;2.15;52.85
52719;BME280;38616;42.140;24.760;2024-01-30T05:03:53;101856.81;;;0.70;56.55
52719;BME280;38616;42.140;24.760;2024-01-30T05:06:28;101850.63;;;1.13;56.45
52719;BME280;38616;42.140;24.760;2024-01-30T05:08:55;101854.34;;;-0.02;57.68
52719;BME280;38616;42.140;24.760;2024-01-30T05:11:21;101862.28;;;-0.47;59.81
52719;BME280;38616;42.140;24.760;2024-01-30T05:13:46;101867.53;;;-0.37;60.42
52719;BME280;38616;42.140;24.760;2024-01-30T05:16:14;101865.84;;;-0.38;60.73
52719;BME280;38616;42.140;24.760;2024-01-30T05:18:40;101861.66;;;-0.40;61.30
52719;BME280;38616;42.140;24.760;2024-01-30T05:21:06;101858.16;;;0.40;59.96
52719;BME280;38616;42.140;24.760;2024-01-30T05:23:32;101855.25;;;0.94;58.08
52719;BME280;38616;42.140;24.760;2024-01-30T05:25:58;101859.59;;;1.46;55.63
52719;BME280;38616;42.140;24.760;2024-01-30T05:28:26;101857.94;;;1.62;55.41
52719;BME280;38616;42.140;24.760;2024-01-30T05:30:51;101854.97;;;1.98;54.72
52719;BME280;38616;42.140;24.760;2024-01-30T05:33:17;101845.88;;;2.41;53.29
52719;BME280;38616;42.140;24.760;2024-01-30T05:35:42;101845.50;;;2.60;52.67
52719;BME280;38616;42.140;24.760;2024-01-30T05:38:08;101855.22;;;2.61;52.53
52719;BME280;38616;42.140;24.760;2024-01-30T05:40:33;101842.47;;;2.55;52.22
52719;BME280;38616;42.140;24.760;2024-01-30T05:42:59;101848.50;;;2.57;51.88
52719;BME280;38616;42.140;24.760;2024-01-30T05:45:27;101858.09;;;2.60;51.84
52719;BME280;38616;42.140;24.760;2024-01-30T05:47:53;101852.41;;;2.38;51.95
52719;BME280;38616;42.140;24.760;2024-01-30T05:50:19;101870.78;;;0.11;58.20
52719;BME280;38616;42.140;24.760;2024-01-30T05:52:45;101865.47;;;-0.61;61.16
52719;BME280;38616;42.140;24.760;2024-01-30T05:55:11;101864.69;;;-0.71;61.90
52719;BME280;38616;42.140;24.760;2024-01-30T05:57:38;101861.09;;;0.10;60.90
52719;BME280;38616;42.140;24.760;2024-01-30T06:00:05;101859.69;;;0.77;58.53
52719;BME280;38616;42.140;24.760;2024-01-30T06:02:31;101854.19;;;1.22;57.01
52719;BME280;38616;42.140;24.760;2024-01-30T06:04:58;101859.97;;;1.68;56.28
52719;BME280;38616;42.140;24.760;2024-01-30T06:09:56;101863.50;;;2.02;54.33
52719;BME280;38616;42.140;24.760;2024-01-30T06:12:23;101854.78;;;2.16;53.52
52719;BME280;38616;42.140;24.760;2024-01-30T06:14:48;101856.25;;;2.52;53.16
52719;BME280;38616;42.140;24.760;2024-01-30T06:17:14;101862.91;;;2.64;52.28
52719;BME280;38616;42.140;24.760;2024-01-30T06:19:39;101862.81;;;2.33;52.95
52719;BME280;38616;42.140;24.760;2024-01-30T06:22:05;101869.88;;;2.09;53.94
52719;BME280;38616;42.140;24.760;2024-01-30T06:24:31;101870.72;;;1.93;53.80
52719;BME280;38616;42.140;24.760;2024-01-30T06:26:56;101863.16;;;2.05;54.03
52719;BME280;38616;42.140;24.760;2024-01-30T06:29:22;101861.81;;;1.92;53.86
52719;BME280;38616;42.140;24.760;2024-01-30T06:31:50;101865.19;;;1.70;54.41
52719;BME280;38616;42.140;24.760;2024-01-30T06:34:15;101868.94;;;1.42;55.32
52719;BME280;38616;42.140;24.760;2024-01-30T06:36:41;101871.31;;;1.45;56.01
52719;BME280;38616;42.140;24.760;2024-01-30T06:39:07;101869.28;;;1.39;56.12
52719;BME280;38616;42.140;24.760;2024-01-30T06:41:32;101875.00;;;1.53;55.95
52719;BME280;38616;42.140;24.760;2024-01-30T06:43:58;101878.22;;;1.65;56.28
52719;BME280;38616;42.140;24.760;2024-01-30T06:46:23;101872.03;;;1.81;55.47
52719;BME280;38616;42.140;24.760;2024-01-30T06:48:49;101878.22;;;1.65;55.71
52719;BME280;38616;42.140;24.760;2024-01-30T06:51:14;101875.88;;;1.61;56.01
52719;BME280;38616;42.140;24.760;2024-01-30T06:53:40;101878.38;;;1.55;56.44
52719;BME280;38616;42.140;24.760;2024-01-30T06:56:05;101871.81;;;1.41;57.05
52719;BME280;38616;42.140;24.760;2024-01-30T06:58:31;101872.50;;;1.51;57.10
52719;BME280;38616;42.140;24.760;2024-01-30T07:00:57;101879.59;;;1.69;56.22
52719;BME280;38616;42.140;24.760;2024-01-30T07:03:23;101877.91;;;2.09;55.27
52719;BME280;38616;42.140;24.760;2024-01-30T07:05:49;101881.59;;;2.08;55.79
52719;BME280;38616;42.140;24.760;2024-01-30T07:08:15;101892.97;;;1.77;55.90
52719;BME280;38616;42.140;24.760;2024-01-30T07:10:44;101887.59;;;1.60;56.07
52719;BME280;38616;42.140;24.760;2024-01-30T07:13:11;101885.59;;;1.87;55.45
52719;BME280;38616;42.140;24.760;2024-01-30T07:15:36;101887.41;;;1.54;56.46
52719;BME280;38616;42.140;24.760;2024-01-30T07:18:02;101885.06;;;1.51;56.98
52719;BME280;38616;42.140;24.760;2024-01-30T07:20:28;101882.69;;;1.47;56.74
52719;BME280;38616;42.140;24.760;2024-01-30T07:22:55;101879.56;;;1.77;55.97
52719;BME280;38616;42.140;24.760;2024-01-30T07:25:21;101878.19;;;1.48;56.12
52719;BME280;38616;42.140;24.760;2024-01-30T07:27:47;101879.91;;;1.82;55.44
52719;BME280;38616;42.140;24.760;2024-01-30T07:30:12;101885.28;;;2.15;54.89
52719;BME280;38616;42.140;24.760;2024-01-30T07:32:38;101892.34;;;2.16;54.16
52719;BME280;38616;42.140;24.760;2024-01-30T07:35:03;101885.78;;;2.44;53.78
52719;BME280;38616;42.140;24.760;2024-01-30T07:37:29;101885.94;;;2.50;53.47
52719;BME280;38616;42.140;24.760;2024-01-30T07:39:57;101875.81;;;2.69;52.05
52719;BME280;38616;42.140;24.760;2024-01-30T07:42:23;101890.72;;;2.80;52.17
52719;BME280;38616;42.140;24.760;2024-01-30T07:44:48;101894.31;;;2.56;52.81
52719;BME280;38616;42.140;24.760;2024-01-30T07:47:13;101886.03;;;2.82;52.00
52719;BME280;38616;42.140;24.760;2024-01-30T07:49:39;101890.78;;;2.47;51.49
52719;BME280;38616;42.140;24.760;2024-01-30T07:52:05;101876.16;;;2.66;52.00
52719;BME280;38616;42.140;24.760;2024-01-30T07:54:31;101889.44;;;2.59;51.74
52719;BME280;38616;42.140;24.760;2024-01-30T07:56:59;101886.59;;;2.61;51.51
52719;BME280;38616;42.140;24.760;2024-01-30T07:59:24;101882.56;;;2.65;51.44
52719;BME280;38616;42.140;24.760;2024-01-30T08:01:50;101896.00;;;2.48;51.74
52719;BME280;38616;42.140;24.760;2024-01-30T08:04:15;101889.72;;;2.81;51.81
52719;BME280;38616;42.140;24.760;2024-01-30T08:06:41;101880.44;;;2.92;51.28
52719;BME280;38616;42.140;24.760;2024-01-30T08:09:06;101879.03;;;2.64;51.15
52719;BME280;38616;42.140;24.760;2024-01-30T08:11:32;101891.31;;;2.34;51.99
52719;BME280;38616;42.140;24.760;2024-01-30T08:13:58;101881.19;;;2.69;51.04
52719;BME280;38616;42.140;24.760;2024-01-30T08:16:23;101885.41;;;2.55;51.25
52719;BME280;38616;42.140;24.760;2024-01-30T08:18:49;101875.19;;;2.59;51.38
52719;BME280;38616;42.140;24.760;2024-01-30T08:21:17;101876.69;;;2.61;50.96
52719;BME280;38616;42.140;24.760;2024-01-30T08:23:42;101876.00;;;2.59;51.38
52719;BME280;38616;42.140;24.760;2024-01-30T08:26:08;101871.97;;;2.72;50.40
52719;BME280;38616;42.140;24.760;2024-01-30T08:28:33;101874.41;;;2.90;50.61
52719;BME280;38616;42.140;24.760;2024-01-30T08:30:59;101871.00;;;3.04;49.53
52719;BME280;38616;42.140;24.760;2024-01-30T08:33:24;101868.28;;;2.73;48.97
52719;BME280;38616;42.140;24.760;2024-01-30T08:35:52;101874.66;;;2.63;50.45
52719;BME280;38616;42.140;24.760;2024-01-30T08:38:18;101883.94;;;2.53;49.72
52719;BME280;38616;42.140;24.760;2024-01-30T08:40:44;101881.94;;;2.30;50.47
52719;BME280;38616;42.140;24.760;2024-01-30T08:43:09;101884.94;;;2.35;50.65
52719;BME280;38616;42.140;24.760;2024-01-30T08:45:35;101879.25;;;2.30;50.22
52719;BME280;38616;42.140;24.760;2024-01-30T08:48:01;101893.66;;;2.54;49.65
52719;BME280;38616;42.140;24.760;2024-01-30T08:50:26;101876.81;;;2.76;49.14
52719;BME280;38616;42.140;24.760;2024-01-30T08:52:52;101879.03;;;2.64;48.78
52719;BME280;38616;42.140;24.760;2024-01-30T08:55:17;101881.59;;;2.33;48.87
52719;BME280;38616;42.140;24.760;2024-01-30T08:57:43;101885.28;;;2.48;49.42
52719;BME280;38616;42.140;24.760;2024-01-30T09:00:09;101877.34;;;2.63;48.64
52719;BME280;38616;42.140;24.760;2024-01-30T09:02:36;101879.81;;;3.21;48.02
52719;BME280;38616;42.140;24.760;2024-01-30T09:05:01;101875.94;;;3.32;47.00
52719;BME280;38616;42.140;24.760;2024-01-30T09:07:27;101872.59;;;3.53;46.69
52719;BME280;38616;42.140;24.760;2024-01-30T09:09:53;101871.03;;;3.59;46.14
52719;BME280;38616;42.140;24.760;2024-01-30T09:12:21;101879.97;;;3.28;45.90
52719;BME280;38616;42.140;24.760;2024-01-30T09:14:46;101872.69;;;3.05;47.01
52719;BME280;38616;42.140;24.760;2024-01-30T09:17:12;101865.38;;;2.83;47.26
52719;BME280;38616;42.140;24.760;2024-01-30T09:53:15;101815.81;;;4.48;44.65
52719;BME280;38616;42.140;24.760;2024-01-30T09:55:43;101818.53;;;4.63;44.30
52719;BME280;38616;42.140;24.760;2024-01-30T09:58:08;101817.94;;;4.68;43.95
52719;BME280;38616;42.140;24.760;2024-01-30T10:00:34;101823.88;;;4.33;44.36
52719;BME280;38616;42.140;24.760;2024-01-30T10:02:59;101817.97;;;3.84;45.42
52719;BME280;38616;42.140;24.760;2024-01-30T10:05:31;101817.69;;;4.33;44.83
52719;BME280;38616;42.140;24.760;2024-01-30T10:07:59;101815.16;;;4.46;44.73
52719;BME280;38616;42.140;24.760;2024-01-30T10:10:24;101816.94;;;4.69;44.19
52719;BME280;38616;42.140;24.760;2024-01-30T10:12:50;101824.34;;;4.97;43.55
52719;BME280;38616;42.140;24.760;2024-01-30T10:15:17;101806.78;;;4.86;42.94
52719;BME280;38616;42.140;24.760;2024-01-30T10:17:44;101818.94;;;4.07;44.02
52719;BME280;38616;42.140;24.760;2024-01-30T10:20:13;101816.25;;;4.07;44.12
52719;BME280;38616;42.140;24.760;2024-01-30T10:22:40;101812.47;;;4.31;44.20
52719;BME280;38616;42.140;24.760;2024-01-30T10:25:10;101808.69;;;4.40;43.64
52719;BME280;38616;42.140;24.760;2024-01-30T10:27:36;101804.41;;;4.31;43.73
52719;BME280;38616;42.140;24.760;2024-01-30T10:30:01;101813.41;;;4.23;44.00
52719;BME280;38616;42.140;24.760;2024-01-30T10:32:29;101816.84;;;4.47;43.93
52719;BME280;38616;42.140;24.760;2024-01-30T10:34:54;101813.31;;;4.32;43.29
52719;BME280;38616;42.140;24.760;2024-01-30T10:37:23;101814.50;;;4.29;43.72
52719;BME280;38616;42.140;24.760;2024-01-30T10:39:53;101807.66;;;4.71;43.15
52719;BME280;38616;42.140;24.760;2024-01-30T10:42:19;101805.75;;;4.87;42.79
52719;BME280;38616;42.140;24.760;2024-01-30T10:45:07;101812.59;;;5.20;42.56
52719;BME280;38616;42.140;24.760;2024-01-30T10:47:40;101808.19;;;5.33;42.45
52719;BME280;38616;42.140;24.760;2024-01-30T10:50:07;101799.25;;;5.33;41.54
52719;BME280;38616;42.140;24.760;2024-01-30T10:52:34;101796.69;;;5.25;41.67
52719;BME280;38616;42.140;24.760;2024-01-30T10:55:00;101801.56;;;5.36;41.58
52719;BME280;38616;42.140;24.760;2024-01-30T10:57:26;101793.81;;;5.48;41.41
52719;BME280;38616;42.140;24.760;2024-01-30T10:59:57;101791.56;;;5.30;41.30
52719;BME280;38616;42.140;24.760;2024-01-30T11:02:24;101775.84;;;5.33;41.15
52719;BME280;38616;42.140;24.760;2024-01-30T11:04:55;101786.81;;;5.54;40.54
52719;BME280;38616;42.140;24.760;2024-01-30T11:07:26;101793.69;;;5.56;40.57
52719;BME280;38616;42.140;24.760;2024-01-30T11:12:24;101779.09;;;5.72;40.33
52719;BME280;38616;42.140;24.760;2024-01-30T11:15:37;101782.38;;;5.24;40.66
52719;BME280;38616;42.140;24.760;2024-01-30T11:20:27;101774.44;;;5.59;40.42
52719;BME280;38616;42.140;24.760;2024-01-30T11:22:56;101773.97;;;5.56;40.08
52719;BME280;38616;42.140;24.760;2024-01-30T11:25:23;101775.22;;;5.82;40.00
52719;BME280;38616;42.140;24.760;2024-01-30T11:27:53;101765.34;;;5.89;39.69
52719;BME280;38616;42.140;24.760;2024-01-30T11:30:30;101762.50;;;5.97;39.74
52719;BME280;38616;42.140;24.760;2024-01-30T11:33:12;101758.81;;;5.76;39.62
52719;BME280;38616;42.140;24.760;2024-01-30T11:35:42;101764.16;;;5.26;40.65
52719;BME280;38616;42.140;24.760;2024-01-30T11:38:09;101753.94;;;5.43;40.45
52719;BME280;38616;42.140;24.760;2024-01-30T11:40:38;101750.28;;;5.51;40.26
52719;BME280;38616;42.140;24.760;2024-01-30T11:43:04;101760.75;;;4.81;40.33
52719;BME280;38616;42.140;24.760;2024-01-30T11:45:31;101741.44;;;4.77;40.78
52719;BME280;38616;42.140;24.760;2024-01-30T11:47:58;101734.09;;;5.08;41.25
52719;BME280;38616;42.140;24.760;2024-01-30T11:50:25;101731.41;;;5.73;40.26
52719;BME280;38616;42.140;24.760;2024-01-30T11:52:51;101731.22;;;5.81;39.88
52719;BME280;38616;42.140;24.760;2024-01-30T11:55:17;101719.97;;;5.99;39.20
52719;BME280;38616;42.140;24.760;2024-01-30T11:57:43;101716.63;;;5.97;39.26
52719;BME280;38616;42.140;24.760;2024-01-30T12:00:16;101717.94;;;6.01;38.65
52719;BME280;38616;42.140;24.760;2024-01-30T12:02:43;101707.13;;;6.01;38.69
52719;BME280;38616;42.140;24.760;2024-01-30T12:05:09;101705.56;;;6.14;38.42
52719;BME280;38616;42.140;24.760;2024-01-30T12:07:37;101710.47;;;6.03;38.30
52719;BME280;38616;42.140;24.760;2024-01-30T12:10:03;101698.84;;;6.03;38.17
52719;BME280;38616;42.140;24.760;2024-01-30T12:12:31;101691.84;;;5.87;38.36
52719;BME280;38616;42.140;24.760;2024-01-30T12:14:56;101684.41;;;6.24;38.40
52719;BME280;38616;42.140;24.760;2024-01-30T12:17:29;101678.56;;;6.62;37.41
52719;BME280;38616;42.140;24.760;2024-01-30T12:20:14;101684.13;;;6.47;37.68
52719;BME280;38616;42.140;24.760;2024-01-30T12:22:48;101671.16;;;6.29;37.94
52719;BME280;38616;42.140;24.760;2024-01-30T12:25:15;101677.69;;;6.06;38.42
52719;BME280;38616;42.140;24.760;2024-01-30T12:27:48;101664.53;;;6.39;38.10
52719;BME280;38616;42.140;24.760;2024-01-30T12:30:18;101659.22;;;6.59;37.43
52719;BME280;38616;42.140;24.760;2024-01-30T12:32:50;101659.69;;;6.83;37.03
52719;BME280;38616;42.140;24.760;2024-01-30T12:35:17;101652.03;;;6.93;36.86
52719;BME280;38616;42.140;24.760;2024-01-30T12:37:45;101652.56;;;6.61;37.04
52719;BME280;38616;42.140;24.760;2024-01-30T12:40:13;101655.50;;;6.67;37.12
52719;BME280;38616;42.140;24.760;2024-01-30T12:42:40;101657.13;;;6.54;37.22
52719;BME280;38616;42.140;24.760;2024-01-30T12:45:07;101654.47;;;6.74;37.29
52719;BME280;38616;42.140;24.760;2024-01-30T12:47:33;101664.53;;;7.01;36.67
52719;BME280;38616;42.140;24.760;2024-01-30T12:49:59;101652.97;;;6.52;37.29
52719;BME280;38616;42.140;24.760;2024-01-30T12:52:25;101657.97;;;6.55;37.45
52719;BME280;38616;42.140;24.760;2024-01-30T12:54:52;101650.97;;;6.87;37.30
52719;BME280;38616;42.140;24.760;2024-01-30T12:57:18;101656.56;;;6.79;36.63
52719;BME280;38616;42.140;24.760;2024-01-30T12:59:44;101646.22;;;7.03;37.32
52719;BME280;38616;42.140;24.760;2024-01-30T13:02:10;101646.84;;;6.91;36.93
52719;BME280;38616;42.140;24.760;2024-01-30T13:04:37;101654.34;;;6.34;37.92
52719;BME280;38616;42.140;24.760;2024-01-30T13:07:03;101653.50;;;6.33;37.81
52719;BME280;38616;42.140;24.760;2024-01-30T13:09:30;101648.63;;;6.50;37.77
52719;BME280;38616;42.140;24.760;2024-01-30T13:11:56;101643.88;;;6.73;37.75
52719;BME280;38616;42.140;24.760;2024-01-30T13:14:24;101641.66;;;6.97;36.67
52719;BME280;38616;42.140;24.760;2024-01-30T13:16:50;101642.06;;;6.93;36.96
52719;BME280;38616;42.140;24.760;2024-01-30T13:19:17;101638.97;;;7.17;36.69
52719;BME280;38616;42.140;24.760;2024-01-30T13:21:42;101647.69;;;7.25;36.56
52719;BME280;38616;42.140;24.760;2024-01-30T13:24:08;101632.94;;;7.28;36.69
52719;BME280;38616;42.140;24.760;2024-01-30T13:26:37;101639.56;;;7.25;37.06
52719;BME280;38616;42.140;24.760;2024-01-30T13:29:06;101639.38;;;7.41;36.49